createdAt,value
2022-10-17T00:01:11.013Z,21.30
2022-10-17T00:03:40.262Z,22.30
2022-10-17T00:06:13.182Z,23.70
2022-10-17T00:08:43.137Z,23.50
2022-10-17T00:11:23.865Z,21.00
2022-10-17T00:13:55.415Z,19.50
2022-10-17T00:16:34.056Z,21.10
2022-10-17T00:19:02.778Z,21.90
2022-10-17T00:21:31.203Z,21.60
2022-10-17T00:24:00.441Z,19.30
2022-10-17T00:26:29.672Z,19.90
2022-10-17T00:28:58.393Z,21.00
2022-10-17T00:31:26.845Z,21.80
2022-10-17T00:33:54.950Z,21.20
2022-10-17T00:36:26.140Z,22.40
2022-10-17T00:38:58.514Z,19.60
2022-10-17T00:41:33.267Z,22.50
2022-10-17T00:44:06.356Z,20.40
2022-10-17T00:46:39.200Z,18.10
2022-10-17T00:49:12.595Z,19.80
2022-10-17T00:51:51.150Z,18.90
2022-10-17T00:54:24.506Z,17.40
2022-10-17T00:56:54.713Z,22.00
2022-10-17T00:59:24.603Z,16.50
2022-10-17T01:02:18.820Z,19.20
2022-10-17T01:04:54.989Z,19.20
2022-10-17T01:07:23.416Z,16.70
2022-10-17T01:09:51.591Z,19.50
2022-10-17T01:13:07.382Z,16.90
2022-10-17T01:16:23.169Z,16.80
2022-10-17T01:19:36.772Z,17.30
2022-10-17T01:22:31.133Z,20.00
2022-10-17T01:25:24.233Z,15.60
2022-10-17T01:28:29.942Z,15.80
2022-10-17T01:31:32.261Z,15.50
2022-10-17T01:34:28.032Z,18.10
2022-10-17T01:37:04.265Z,17.00
2022-10-17T01:39:43.979Z,19.20
2022-10-17T01:42:27.587Z,16.20
2022-10-17T01:45:05.598Z,15.20
2022-10-17T01:47:34.712Z,16.60
2022-10-17T01:50:11.625Z,18.00
2022-10-17T01:52:48.050Z,18.30
2022-10-17T01:55:24.592Z,17.80
2022-10-17T01:58:02.544Z,16.00
2022-10-17T02:00:32.390Z,20.10
2022-10-17T02:03:04.818Z,17.10
2022-10-17T02:05:39.439Z,16.10
2022-10-17T02:08:08.183Z,15.50
2022-10-17T02:10:40.704Z,16.50
2022-10-17T02:13:52.469Z,17.20
2022-10-17T02:16:38.799Z,18.10
2022-10-17T02:19:41.096Z,18.10
2022-10-17T02:22:39.525Z,14.40
2022-10-17T02:25:24.119Z,17.70
2022-10-17T02:28:28.640Z,18.40
2022-10-17T02:31:09.028Z,20.70
2022-10-17T02:33:52.743Z,16.70
2022-10-17T02:36:26.088Z,18.30
2022-10-17T02:38:55.883Z,20.30
2022-10-17T02:41:25.315Z,20.00
2022-10-17T02:43:55.717Z,17.40
2022-10-17T02:46:28.715Z,19.20
2022-10-17T02:49:18.839Z,19.70
2022-10-17T02:52:16.440Z,20.30
2022-10-17T02:55:13.837Z,20.70
2022-10-17T02:57:49.738Z,20.70
2022-10-17T03:00:19.884Z,20.00
2022-10-17T03:02:51.319Z,26.70
2022-10-17T03:05:27.252Z,19.90
2022-10-17T03:07:56.953Z,20.90
2022-10-17T03:10:25.841Z,18.80
2022-10-17T03:12:54.080Z,19.70
2022-10-17T03:15:22.152Z,22.30
2022-10-17T03:17:50.208Z,19.10
2022-10-17T03:20:18.788Z,17.20
2022-10-17T03:22:46.996Z,17.90
2022-10-17T03:25:15.223Z,22.80
2022-10-17T03:27:44.051Z,19.50
2022-10-17T03:30:12.363Z,16.30
2022-10-17T03:32:40.564Z,17.60
2022-10-17T03:35:14.006Z,16.90
2022-10-17T03:37:45.298Z,16.90
2022-10-17T03:40:14.800Z,19.50
2022-10-17T03:42:42.845Z,14.60
2022-10-17T03:45:11.456Z,17.30
2022-10-17T03:47:39.582Z,17.90
2022-10-17T03:50:08.251Z,16.70
2022-10-17T03:52:37.236Z,19.40
2022-10-17T03:55:05.932Z,18.30
2022-10-17T03:57:36.664Z,19.60
2022-10-17T04:00:06.951Z,19.00
2022-10-17T04:02:42.405Z,16.60
2022-10-17T04:05:13.867Z,19.70
2022-10-17T04:07:42.174Z,20.50
2022-10-17T04:10:11.810Z,13.40
2022-10-17T04:12:40.129Z,17.10
2022-10-17T04:15:09.216Z,19.90
2022-10-17T04:17:38.349Z,19.60
2022-10-17T04:20:07.919Z,15.40
2022-10-17T04:22:35.951Z,15.80
2022-10-17T04:25:04.458Z,18.60
2022-10-17T04:27:37.767Z,17.40
2022-10-17T04:30:06.730Z,17.00
2022-10-17T04:32:41.432Z,18.30
2022-10-17T04:35:15.026Z,18.80
2022-10-17T04:37:46.853Z,21.60
2022-10-17T04:40:18.816Z,20.00
2022-10-17T04:42:47.262Z,21.00
2022-10-17T04:45:17.652Z,20.00
2022-10-17T04:47:46.384Z,18.70
2022-10-17T04:50:14.409Z,21.10
2022-10-17T04:52:42.449Z,21.30
2022-10-17T04:55:10.524Z,20.60
2022-10-17T04:57:39.353Z,30.20
2022-10-17T05:00:16.133Z,25.30
2022-10-17T05:02:55.227Z,22.80
2022-10-17T05:05:23.399Z,26.40
2022-10-17T05:07:52.731Z,25.40
2022-10-17T05:10:24.720Z,161.40
2022-10-17T05:12:53.679Z,85.60
2022-10-17T05:15:23.781Z,75.00
2022-10-17T05:17:56.730Z,64.80
2022-10-17T05:20:25.992Z,36.10
2022-10-17T05:22:54.486Z,27.50
2022-10-17T05:25:22.828Z,30.10
2022-10-17T05:27:50.930Z,21.30
2022-10-17T05:30:19.072Z,22.30
2022-10-17T05:32:47.667Z,26.70
2022-10-17T05:35:16.484Z,22.70
2022-10-17T05:37:44.517Z,23.60
2022-10-17T05:40:12.797Z,25.40
2022-10-17T05:42:49.661Z,24.50
2022-10-17T05:45:18.667Z,25.60
2022-10-17T05:47:47.298Z,24.10
2022-10-17T05:50:15.592Z,23.00
2022-10-17T05:52:58.261Z,28.10
2022-10-17T05:55:26.318Z,26.10
2022-10-17T05:57:54.607Z,27.00
2022-10-17T06:00:23.149Z,25.30
2022-10-17T06:02:56.339Z,23.20
2022-10-17T06:05:25.393Z,22.30
2022-10-17T06:07:56.974Z,24.60
2022-10-17T06:10:29.099Z,20.00
2022-10-17T06:12:57.603Z,28.10
2022-10-17T06:15:26.785Z,28.50
2022-10-17T06:18:07.148Z,25.80
2022-10-17T06:20:35.264Z,30.50
2022-10-17T06:23:03.751Z,22.40
2022-10-17T06:25:45.842Z,30.20
2022-10-17T06:28:13.924Z,32.50
2022-10-17T06:30:42.088Z,26.10
2022-10-17T06:33:10.113Z,33.80
2022-10-17T06:35:38.166Z,28.20
2022-10-17T06:38:06.569Z,30.20
2022-10-17T06:40:35.944Z,28.90
2022-10-17T06:43:04.024Z,28.60
2022-10-17T06:45:50.877Z,27.40
2022-10-17T06:48:29.210Z,36.90
2022-10-17T06:51:15.237Z,26.10
2022-10-17T06:53:50.205Z,32.60
2022-10-17T06:56:43.465Z,31.60
2022-10-17T06:59:30.038Z,41.40
2022-10-17T07:02:13.047Z,33.40
2022-10-17T07:04:41.051Z,25.90
2022-10-17T07:07:09.082Z,25.50
2022-10-17T07:09:37.662Z,26.80
2022-10-17T07:12:08.335Z,27.90
2022-10-17T07:14:36.371Z,28.80
2022-10-17T07:17:05.327Z,29.00
2022-10-17T07:19:34.507Z,27.60
2022-10-17T07:22:02.655Z,27.90
2022-10-17T07:24:31.668Z,24.40
2022-10-17T07:27:08.106Z,27.00
2022-10-17T07:29:36.444Z,31.10
2022-10-17T07:32:13.320Z,26.70
2022-10-17T07:34:41.450Z,26.00
2022-10-17T07:37:10.778Z,33.40
2022-10-17T07:39:40.554Z,29.80
2022-10-17T07:42:08.893Z,25.20
2022-10-17T07:44:37.055Z,44.40
2022-10-17T07:47:06.043Z,41.30
2022-10-17T07:49:35.550Z,52.50
2022-10-17T07:52:03.560Z,50.80
2022-10-17T07:54:31.613Z,35.10
2022-10-17T07:56:59.760Z,41.50
2022-10-17T07:59:27.847Z,40.80
2022-10-17T08:01:59.670Z,35.20
2022-10-17T08:04:28.484Z,30.50
2022-10-17T08:07:11.345Z,29.80
2022-10-17T08:09:45.231Z,32.90
2022-10-17T08:12:14.944Z,49.40
2022-10-17T08:14:43.397Z,37.30
2022-10-17T08:17:11.455Z,35.00
2022-10-17T08:19:40.752Z,36.30
2022-10-17T08:22:08.832Z,24.40
2022-10-17T08:24:36.857Z,25.70
2022-10-17T08:27:11.406Z,34.00
2022-10-17T08:29:40.941Z,23.50
2022-10-17T08:32:10.196Z,33.90
2022-10-17T08:34:38.519Z,24.30
2022-10-17T08:37:06.615Z,35.90
2022-10-17T08:39:34.692Z,30.20
2022-10-17T08:42:08.565Z,26.20
2022-10-17T08:45:28.021Z,31.10
2022-10-17T08:48:02.536Z,21.60
2022-10-17T08:50:53.054Z,27.80
2022-10-17T08:53:39.886Z,23.60
2022-10-17T08:56:25.037Z,28.20
2022-10-17T08:59:12.760Z,27.00
2022-10-17T09:02:04.176Z,32.20
2022-10-17T09:04:38.243Z,29.40
2022-10-17T09:07:18.813Z,27.50
2022-10-17T09:10:23.560Z,25.90
2022-10-17T09:16:40.868Z,27.50
2022-10-17T09:19:35.970Z,27.80
2022-10-17T09:22:17.030Z,33.80
2022-10-17T09:24:55.542Z,29.70
2022-10-17T09:27:33.685Z,28.20
2022-10-17T09:30:51.564Z,23.90
2022-10-17T09:33:53.269Z,20.90
2022-10-17T09:36:34.910Z,25.40
2022-10-17T09:39:16.751Z,19.80
2022-10-17T09:41:48.248Z,21.20
2022-10-17T09:44:23.897Z,26.40
2022-10-17T09:47:14.241Z,27.10
2022-10-17T09:49:45.774Z,24.30
2022-10-17T09:52:35.251Z,31.30
2022-10-17T09:55:17.690Z,32.80
2022-10-17T09:58:04.361Z,29.30
2022-10-17T10:00:38.065Z,31.90
2022-10-17T10:03:26.549Z,22.00
2022-10-17T10:06:06.586Z,27.00
2022-10-17T10:08:49.244Z,31.80
2022-10-17T10:11:18.677Z,35.10
2022-10-17T10:13:49.356Z,26.10
2022-10-17T10:16:24.909Z,27.30
2022-10-17T10:18:53.025Z,26.00
2022-10-17T10:21:24.727Z,22.60
2022-10-17T10:24:14.984Z,24.40
2022-10-17T10:26:49.939Z,22.60
2022-10-17T10:29:35.683Z,25.80
2022-10-17T10:32:39.488Z,21.40
2022-10-17T10:35:19.681Z,24.30
2022-10-17T10:37:53.452Z,30.50
2022-10-17T10:40:46.132Z,27.00
2022-10-17T10:43:41.039Z,38.60
2022-10-17T10:46:28.694Z,22.70
2022-10-17T10:49:02.215Z,27.50
2022-10-17T10:51:48.039Z,34.90
2022-10-17T10:54:52.247Z,41.40
2022-10-17T10:57:23.215Z,21.90
2022-10-17T11:00:03.220Z,21.30
2022-10-17T11:02:43.127Z,35.50
2022-10-17T11:05:30.316Z,27.10
2022-10-17T11:08:32.857Z,22.00
2022-10-17T11:11:34.527Z,18.60
2022-10-17T11:14:21.541Z,19.30
2022-10-17T11:17:01.104Z,21.30
2022-10-17T11:19:43.937Z,21.20
2022-10-17T11:22:32.785Z,17.70
2022-10-17T11:25:25.872Z,17.50
2022-10-17T11:27:54.316Z,21.80
2022-10-17T11:30:27.044Z,26.00
2022-10-17T11:33:02.252Z,20.40
2022-10-17T11:35:38.025Z,56.30
2022-10-17T11:38:41.991Z,15.70
2022-10-17T11:41:20.829Z,15.80
2022-10-17T11:43:57.111Z,15.70
2022-10-17T11:46:28.670Z,17.40
2022-10-17T11:48:59.539Z,18.20
2022-10-17T11:54:45.789Z,24.00
2022-10-17T11:57:28.982Z,23.90
2022-10-17T12:03:06.421Z,21.70
2022-10-17T12:05:45.432Z,21.10
2022-10-17T12:08:40.422Z,19.50
2022-10-17T12:11:21.830Z,18.10
2022-10-17T12:13:53.785Z,11.50
2022-10-17T12:16:21.866Z,13.90
2022-10-17T12:19:11.524Z,15.60
2022-10-17T12:22:26.053Z,13.90
2022-10-17T12:25:04.075Z,12.30
2022-10-17T12:27:47.344Z,8.80
2022-10-17T12:33:07.517Z,11.10
2022-10-17T12:35:38.347Z,10.60
2022-10-17T12:38:22.913Z,11.00
2022-10-17T12:40:54.320Z,13.20
2022-10-17T12:43:28.296Z,8.50
2022-10-17T12:46:01.419Z,10.20
2022-10-17T12:48:38.567Z,13.30
2022-10-17T12:51:34.119Z,13.70
2022-10-17T12:54:02.227Z,16.60
2022-10-17T12:56:42.245Z,20.30
2022-10-17T12:59:22.456Z,16.00
2022-10-17T13:01:59.157Z,20.10
2022-10-17T13:04:29.488Z,14.70
2022-10-17T13:06:59.191Z,11.90
2022-10-17T13:09:38.673Z,13.90
2022-10-17T13:12:16.190Z,15.30
2022-10-17T13:14:46.780Z,15.20
2022-10-17T13:17:28.278Z,18.40
2022-10-17T13:19:57.792Z,12.80
2022-10-17T13:22:32.710Z,11.90
2022-10-17T13:25:16.627Z,8.70
2022-10-17T13:27:45.780Z,12.20
2022-10-17T13:30:27.996Z,16.20
2022-10-17T13:33:00.659Z,11.80
2022-10-17T13:38:32.455Z,9.50
2022-10-17T13:41:29.980Z,6.20
2022-10-17T13:43:52.118Z,8.80
2022-10-17T13:46:40.050Z,5.80
2022-10-17T13:49:33.879Z,9.00
2022-10-17T13:52:05.281Z,6.70
2022-10-17T13:54:41.843Z,5.00
2022-10-17T13:57:23.244Z,7.20
2022-10-17T14:00:21.802Z,4.60
2022-10-17T14:02:49.830Z,7.50
2022-10-17T14:05:21.198Z,6.30
2022-10-17T14:08:11.484Z,5.80
2022-10-17T14:10:43.208Z,7.90
2022-10-17T14:13:30.249Z,8.20
2022-10-17T14:16:02.265Z,7.60
2022-10-17T14:18:36.677Z,7.20
2022-10-17T14:24:27.074Z,10.30
2022-10-17T14:27:00.537Z,9.10
2022-10-17T14:29:32.182Z,18.00
2022-10-17T14:32:08.562Z,17.60
2022-10-17T14:34:40.542Z,16.50
2022-10-17T14:37:33.473Z,10.60
2022-10-17T14:40:04.988Z,9.40
2022-10-17T14:42:39.433Z,10.70
2022-10-17T14:45:14.713Z,12.90
2022-10-17T14:47:44.194Z,14.00
2022-10-17T14:50:12.680Z,9.60
2022-10-17T14:52:40.865Z,10.30
2022-10-17T14:55:26.436Z,12.50
2022-10-17T14:57:54.653Z,11.60
2022-10-17T15:00:24.200Z,10.70
2022-10-17T15:02:55.538Z,10.00
2022-10-17T15:05:24.908Z,10.00
2022-10-17T15:07:53.742Z,9.60
2022-10-17T15:10:36.921Z,12.10
2022-10-17T15:15:52.964Z,13.50
2022-10-17T15:18:20.960Z,12.30
2022-10-17T15:20:55.332Z,11.00
2022-10-17T15:23:32.775Z,14.70
2022-10-17T15:26:01.825Z,14.60
2022-10-17T15:28:30.010Z,14.30
2022-10-17T15:30:58.132Z,18.40
2022-10-17T15:33:26.182Z,15.30
2022-10-17T15:35:54.433Z,17.10
2022-10-17T15:38:22.540Z,18.00
2022-10-17T15:40:52.060Z,19.60
2022-10-17T15:43:20.291Z,16.00
2022-10-17T15:45:48.905Z,19.10
2022-10-17T15:48:30.208Z,18.50
2022-10-17T15:50:58.473Z,21.80
2022-10-17T15:53:26.683Z,17.70
2022-10-17T15:55:54.909Z,19.30
2022-10-17T15:58:22.955Z,19.50
2022-10-17T16:00:51.101Z,15.70
2022-10-17T16:03:19.250Z,18.00
2022-10-17T16:05:47.548Z,19.40
2022-10-17T16:08:15.544Z,19.80
2022-10-17T16:10:43.692Z,21.20
2022-10-17T16:13:23.359Z,27.40
2022-10-17T16:15:51.736Z,24.40
2022-10-17T16:18:21.190Z,27.60
2022-10-17T16:20:49.225Z,33.80
2022-10-17T16:23:17.319Z,32.00
2022-10-17T16:25:45.569Z,36.30
2022-10-17T16:28:13.612Z,29.90
2022-10-17T16:30:45.057Z,34.60
2022-10-17T16:33:13.295Z,33.20
2022-10-17T16:35:41.333Z,31.80
2022-10-17T16:38:09.370Z,32.10
2022-10-17T16:40:39.968Z,35.80
2022-10-17T16:43:12.590Z,27.20
2022-10-17T16:45:41.103Z,33.60
2022-10-17T16:48:09.749Z,33.80
2022-10-17T16:50:40.241Z,35.20
2022-10-17T16:53:08.352Z,35.30
2022-10-17T16:55:36.409Z,35.90
2022-10-17T16:58:04.590Z,35.80
2022-10-17T17:00:32.699Z,35.10
2022-10-17T17:03:00.755Z,32.50
2022-10-17T17:05:28.799Z,46.60
2022-10-17T17:07:56.804Z,99.20
2022-10-17T17:10:24.837Z,88.60
2022-10-17T17:12:52.876Z,80.60
2022-10-17T17:15:20.871Z,72.00
2022-10-17T17:17:52.448Z,48.90
2022-10-17T17:20:23.392Z,44.00
2022-10-17T17:22:52.376Z,35.20
2022-10-17T17:25:22.071Z,30.00
2022-10-17T17:27:50.224Z,29.20
2022-10-17T17:30:18.587Z,29.70
2022-10-17T17:32:46.617Z,34.60
2022-10-17T17:35:14.900Z,43.60
2022-10-17T17:37:42.957Z,39.40
2022-10-17T17:40:11.598Z,34.40
2022-10-17T17:42:39.651Z,32.20
2022-10-17T17:45:08.633Z,42.70
2022-10-17T17:47:36.670Z,74.90
2022-10-17T17:50:05.189Z,81.70
2022-10-17T17:52:33.427Z,43.80
2022-10-17T17:55:01.687Z,43.40
2022-10-17T17:57:30.207Z,37.40
2022-10-17T17:59:58.290Z,27.90
2022-10-17T18:02:26.314Z,33.90
2022-10-17T18:04:54.309Z,33.40
2022-10-17T18:07:23.464Z,28.10
2022-10-17T18:09:51.744Z,32.00
2022-10-17T18:12:19.758Z,39.10
2022-10-17T18:14:47.927Z,29.50
2022-10-17T18:17:16.063Z,31.90
2022-10-17T18:19:44.067Z,30.80
2022-10-17T18:22:12.231Z,31.60
2022-10-17T18:24:40.879Z,29.80
2022-10-17T18:27:08.908Z,28.50
2022-10-17T18:29:37.376Z,29.60
2022-10-17T18:32:05.725Z,30.00
2022-10-17T18:34:33.693Z,32.10
2022-10-17T18:37:02.626Z,30.50
2022-10-17T18:39:30.913Z,30.60
2022-10-17T18:41:59.107Z,32.80
2022-10-17T18:44:27.507Z,25.40
2022-10-17T18:46:58.569Z,31.60
2022-10-17T18:49:29.573Z,31.10
2022-10-17T18:51:57.593Z,30.70
2022-10-17T18:54:25.756Z,30.40
2022-10-17T18:56:55.202Z,33.10
2022-10-17T18:59:23.470Z,30.30
2022-10-17T19:01:51.497Z,33.00
2022-10-17T19:04:19.573Z,33.80
2022-10-17T19:06:47.585Z,35.70
2022-10-17T19:09:16.346Z,40.70
2022-10-17T19:11:44.371Z,33.30
2022-10-17T19:14:13.687Z,33.60
2022-10-17T19:16:46.431Z,34.40
2022-10-17T19:19:24.241Z,37.40
2022-10-17T19:21:53.179Z,32.90
2022-10-17T19:24:25.390Z,34.10
2022-10-17T19:26:56.666Z,33.30
2022-10-17T19:29:31.850Z,33.40
2022-10-17T19:32:01.109Z,30.20
2022-10-17T19:34:29.377Z,35.00
2022-10-17T19:36:57.445Z,32.60
2022-10-17T19:39:26.602Z,32.40
2022-10-17T19:41:54.707Z,31.30
2022-10-17T19:44:22.837Z,30.30
2022-10-17T19:46:50.894Z,36.30
2022-10-17T19:49:18.943Z,31.90
2022-10-17T19:51:47.156Z,32.90
2022-10-17T19:54:18.259Z,37.30
2022-10-17T19:56:46.808Z,33.80
2022-10-17T19:59:16.651Z,35.40
2022-10-17T20:01:45.592Z,37.40
2022-10-17T20:04:13.908Z,40.30
2022-10-17T20:06:42.364Z,34.20
2022-10-17T20:09:15.679Z,36.10
2022-10-17T20:11:45.734Z,33.40
2022-10-17T20:14:13.850Z,37.10
2022-10-17T20:16:44.690Z,39.20
2022-10-17T20:19:13.590Z,36.60
2022-10-17T20:21:42.528Z,37.10
2022-10-17T20:24:14.951Z,35.90
2022-10-17T20:26:44.327Z,42.10
2022-10-17T20:29:19.880Z,37.10
2022-10-17T20:31:48.349Z,35.00
2022-10-17T20:34:18.200Z,37.40
2022-10-17T20:36:47.408Z,39.90
2022-10-17T20:39:18.110Z,38.60
2022-10-17T20:41:46.756Z,41.10
2022-10-17T20:44:14.868Z,36.30
2022-10-17T20:47:00.575Z,39.20
2022-10-17T20:49:30.762Z,40.70
2022-10-17T20:52:00.618Z,39.50
2022-10-17T20:54:28.915Z,41.40
2022-10-17T20:56:59.895Z,42.20
2022-10-17T20:59:31.143Z,40.60
2022-10-17T21:01:59.170Z,41.30
2022-10-17T21:04:46.677Z,37.00
2022-10-17T21:07:15.856Z,39.30
2022-10-17T21:09:45.377Z,38.30
2022-10-17T21:12:21.550Z,40.30
2022-10-17T21:15:00.349Z,36.30
2022-10-17T21:17:28.459Z,38.00
2022-10-17T21:19:56.566Z,37.90
2022-10-17T21:22:24.981Z,43.40
2022-10-17T21:24:53.076Z,41.50
2022-10-17T21:27:21.088Z,35.20
2022-10-17T21:29:49.116Z,40.70
2022-10-17T21:32:31.901Z,38.30
2022-10-17T21:35:05.803Z,37.50
2022-10-17T21:37:33.975Z,31.30
2022-10-17T21:40:02.129Z,36.70
2022-10-17T21:42:30.489Z,31.80
2022-10-17T21:44:59.087Z,39.30
2022-10-17T21:47:27.776Z,32.70
2022-10-17T21:49:56.155Z,34.30
2022-10-17T21:52:24.336Z,35.00
2022-10-17T21:54:52.345Z,36.80
2022-10-17T21:57:20.396Z,32.30
2022-10-17T21:59:48.516Z,36.70
2022-10-17T22:02:16.511Z,34.50
2022-10-17T22:04:44.544Z,36.80
2022-10-17T22:07:12.617Z,37.40
2022-10-17T22:09:40.661Z,37.10
2022-10-17T22:12:08.655Z,35.10
2022-10-17T22:14:36.685Z,34.30
2022-10-17T22:17:04.749Z,38.20
2022-10-17T22:19:32.911Z,35.30
2022-10-17T22:22:00.881Z,37.30
2022-10-17T22:24:28.979Z,34.60
2022-10-17T22:26:57.016Z,35.90
2022-10-17T22:29:25.056Z,34.30
2022-10-17T22:31:53.113Z,33.20
2022-10-17T22:34:21.080Z,33.50
2022-10-17T22:36:49.164Z,34.10
2022-10-17T22:39:17.416Z,32.50
2022-10-17T22:41:45.394Z,34.90
2022-10-17T22:44:13.475Z,33.60
2022-10-17T22:46:41.490Z,33.70
2022-10-17T22:49:09.495Z,34.60
2022-10-17T22:51:37.491Z,32.00
2022-10-17T22:54:05.481Z,34.20
2022-10-17T22:56:33.560Z,29.20
2022-10-17T22:59:01.555Z,33.70
2022-10-17T23:01:29.748Z,30.20
2022-10-17T23:03:58.008Z,34.50
2022-10-17T23:06:26.062Z,29.20
2022-10-17T23:08:54.191Z,33.00
2022-10-17T23:11:22.835Z,34.20
2022-10-17T23:13:50.807Z,33.00
2022-10-17T23:16:18.912Z,28.00
2022-10-17T23:18:46.994Z,32.80
2022-10-17T23:21:15.526Z,29.80
2022-10-17T23:23:43.519Z,29.90
2022-10-17T23:26:14.356Z,29.10
2022-10-17T23:28:42.930Z,33.00
2022-10-17T23:31:18.029Z,30.80
2022-10-17T23:33:48.975Z,31.00
2022-10-17T23:36:20.418Z,31.50
2022-10-17T23:38:49.738Z,35.40
2022-10-17T23:41:18.839Z,32.80
2022-10-17T23:43:46.878Z,33.90
2022-10-17T23:46:14.924Z,36.10
2022-10-17T23:48:43.164Z,31.70
2022-10-17T23:51:11.508Z,30.30
2022-10-17T23:53:40.489Z,39.10
2022-10-17T23:56:10.156Z,31.30
2022-10-17T23:58:39.414Z,33.00
